sensor_id;sensor_type;location;lat;lon;timestamp;pressure;altitude;pressure_sealevel;temperature;humidity
69689;BME280;56932;38.402;-96.176;2023-04-03T00:00:23;96273.05;;;23.17;23.73
69689;BME280;56932;38.402;-96.176;2023-04-03T00:02:48;96270.17;;;22.98;23.67
69689;BME280;56932;38.402;-96.176;2023-04-03T00:05:13;96268.97;;;22.70;24.32
69689;BME280;56932;38.402;-96.176;2023-04-03T00:07:39;96261.47;;;22.21;24.65
69689;BME280;56932;38.402;-96.176;2023-04-03T00:10:05;96245.13;;;22.59;24.65
69689;BME280;56932;38.402;-96.176;2023-04-03T00:12:30;96228.90;;;23.02;24.74
69689;BME280;56932;38.402;-96.176;2023-04-03T00:14:55;96222.02;;;23.29;24.48
69689;BME280;56932;38.402;-96.176;2023-04-03T00:17:21;96223.27;;;23.11;24.71
69689;BME280;56932;38.402;-96.176;2023-04-03T00:19:46;96226.73;;;22.84;24.40
69689;BME280;56932;38.402;-96.176;2023-04-03T00:22:12;96236.56;;;22.83;25.78
69689;BME280;56932;38.402;-96.176;2023-04-03T00:24:38;96240.33;;;22.09;26.11
69689;BME280;56932;38.402;-96.176;2023-04-03T00:27:03;96234.64;;;22.60;25.83
69689;BME280;56932;38.402;-96.176;2023-04-03T00:29:28;96228.39;;;23.11;25.66
69689;BME280;56932;38.402;-96.176;2023-04-03T00:31:54;96225.75;;;23.22;25.26
69689;BME280;56932;38.402;-96.176;2023-04-03T00:34:19;96222.64;;;23.63;24.97
69689;BME280;56932;38.402;-96.176;2023-04-03T00:36:45;96218.41;;;22.49;25.93
69689;BME280;56932;38.402;-96.176;2023-04-03T00:39:10;96220.84;;;22.91;25.68
69689;BME280;56932;38.402;-96.176;2023-04-03T00:41:36;96217.76;;;23.29;25.02
69689;BME280;56932;38.402;-96.176;2023-04-03T00:46:27;96220.23;;;22.91;25.81
69689;BME280;56932;38.402;-96.176;2023-04-03T00:48:52;96219.34;;;23.18;25.70
69689;BME280;56932;38.402;-96.176;2023-04-03T00:51:21;96223.64;;;23.04;26.54
69689;BME280;56932;38.402;-96.176;2023-04-03T00:53:48;96228.33;;;22.33;27.01
69689;BME280;56932;38.402;-96.176;2023-04-03T00:56:10;96230.64;;;23.49;26.22
69689;BME280;56932;38.402;-96.176;2023-04-03T00:58:37;96236.94;;;22.93;26.74
69689;BME280;56932;38.402;-96.176;2023-04-03T01:01:00;96242.37;;;22.80;26.53
69689;BME280;56932;38.402;-96.176;2023-04-03T01:03:25;96243.60;;;22.97;26.80
69689;BME280;56932;38.402;-96.176;2023-04-03T01:05:51;96237.92;;;23.44;25.85
69689;BME280;56932;38.402;-96.176;2023-04-03T01:08:16;96241.15;;;22.43;26.92
69689;BME280;56932;38.402;-96.176;2023-04-03T01:10:42;96239.82;;;22.11;26.85
69689;BME280;56932;38.402;-96.176;2023-04-03T01:15:33;96235.97;;;22.67;27.47
69689;BME280;56932;38.402;-96.176;2023-04-03T01:17:58;96234.21;;;23.23;26.99
69689;BME280;56932;38.402;-96.176;2023-04-03T01:22:54;96239.68;;;21.96;27.55
69689;BME280;56932;38.402;-96.176;2023-04-03T01:25:15;96243.26;;;23.14;26.98
69689;BME280;56932;38.402;-96.176;2023-04-03T01:27:40;96243.99;;;22.37;27.07
69689;BME280;56932;38.402;-96.176;2023-04-03T01:30:07;96246.13;;;22.15;27.72
69689;BME280;56932;38.402;-96.176;2023-04-03T01:32:31;96254.94;;;23.19;26.64
69689;BME280;56932;38.402;-96.176;2023-04-03T01:34:56;96256.79;;;22.43;27.40
69689;BME280;56932;38.402;-96.176;2023-04-03T01:37:22;96259.83;;;22.82;26.93
69689;BME280;56932;38.402;-96.176;2023-04-03T01:39:47;96259.38;;;22.68;26.33
69689;BME280;56932;38.402;-96.176;2023-04-03T01:42:13;96262.21;;;22.91;26.69
69689;BME280;56932;38.402;-96.176;2023-04-03T01:44:38;96265.92;;;22.42;26.69
69689;BME280;56932;38.402;-96.176;2023-04-03T01:47:06;96271.01;;;23.82;25.74
69689;BME280;56932;38.402;-96.176;2023-04-03T01:49:29;96275.83;;;23.17;26.37
69689;BME280;56932;38.402;-96.176;2023-04-03T01:51:54;96271.16;;;22.92;25.82
69689;BME280;56932;38.402;-96.176;2023-04-03T01:54:20;96275.87;;;22.67;26.38
69689;BME280;56932;38.402;-96.176;2023-04-03T01:56:45;96278.34;;;22.73;26.02
69689;BME280;56932;38.402;-96.176;2023-04-03T01:59:11;96276.66;;;23.73;25.70
69689;BME280;56932;38.402;-96.176;2023-04-03T02:01:37;96281.08;;;22.81;26.11
69689;BME280;56932;38.402;-96.176;2023-04-03T02:04:02;96281.22;;;23.34;25.62
69689;BME280;56932;38.402;-96.176;2023-04-03T02:06:27;96287.00;;;23.15;26.16
69689;BME280;56932;38.402;-96.176;2023-04-03T02:08:53;96286.99;;;23.45;25.44
69689;BME280;56932;38.402;-96.176;2023-04-03T02:11:18;96289.68;;;23.71;25.60
69689;BME280;56932;38.402;-96.176;2023-04-03T02:13:44;96292.07;;;22.51;26.06
69689;BME280;56932;38.402;-96.176;2023-04-03T02:16:10;96290.43;;;23.47;25.38
69689;BME280;56932;38.402;-96.176;2023-04-03T02:18:36;96298.86;;;23.02;26.03
69689;BME280;56932;38.402;-96.176;2023-04-03T02:21:00;96298.27;;;23.68;25.20
69689;BME280;56932;38.402;-96.176;2023-04-03T02:23:26;96297.99;;;23.79;25.48
69689;BME280;56932;38.402;-96.176;2023-04-03T02:25:51;96301.89;;;23.57;25.26
69689;BME280;56932;38.402;-96.176;2023-04-03T02:28:17;96300.17;;;23.90;25.36
69689;BME280;56932;38.402;-96.176;2023-04-03T02:30:42;96296.65;;;22.90;25.35
69689;BME280;56932;38.402;-96.176;2023-04-03T02:33:08;96302.14;;;23.20;25.73
69689;BME280;56932;38.402;-96.176;2023-04-03T02:35:33;96303.80;;;23.94;24.97
69689;BME280;56932;38.402;-96.176;2023-04-03T02:37:59;96303.39;;;23.42;25.23
69689;BME280;56932;38.402;-96.176;2023-04-03T02:40:24;96304.73;;;23.67;25.14
69689;BME280;56932;38.402;-96.176;2023-04-03T02:42:50;96313.50;;;22.70;25.65
69689;BME280;56932;38.402;-96.176;2023-04-03T02:45:15;96316.54;;;24.04;24.84
69689;BME280;56932;38.402;-96.176;2023-04-03T02:47:41;96325.92;;;21.65;26.44
69689;BME280;56932;38.402;-96.176;2023-04-03T02:50:06;96337.32;;;22.95;26.05
69689;BME280;56932;38.402;-96.176;2023-04-03T02:52:32;96343.36;;;23.89;24.91
69689;BME280;56932;38.402;-96.176;2023-04-03T02:54:57;96349.79;;;23.38;25.11
69689;BME280;56932;38.402;-96.176;2023-04-03T02:57:22;96353.39;;;23.89;24.98
69689;BME280;56932;38.402;-96.176;2023-04-03T02:59:48;96352.43;;;23.45;24.68
69689;BME280;56932;38.402;-96.176;2023-04-03T03:02:13;96354.66;;;23.89;24.70
69689;BME280;56932;38.402;-96.176;2023-04-03T03:04:39;96346.46;;;24.17;24.22
69689;BME280;56932;38.402;-96.176;2023-04-03T03:07:05;96343.01;;;23.28;25.21
69689;BME280;56932;38.402;-96.176;2023-04-03T03:09:30;96344.80;;;23.08;25.61
69689;BME280;56932;38.402;-96.176;2023-04-03T03:11:56;96346.38;;;23.57;24.69
69689;BME280;56932;38.402;-96.176;2023-04-03T03:14:21;96347.48;;;24.44;24.25
69689;BME280;56932;38.402;-96.176;2023-04-03T03:16:47;96347.24;;;23.28;24.93
69689;BME280;56932;38.402;-96.176;2023-04-03T03:19:12;96342.82;;;23.46;25.12
69689;BME280;56932;38.402;-96.176;2023-04-03T03:21:38;96338.32;;;23.07;25.07
69689;BME280;56932;38.402;-96.176;2023-04-03T03:24:03;96339.80;;;22.95;25.18
69689;BME280;56932;38.402;-96.176;2023-04-03T03:26:29;96338.65;;;23.13;25.40
69689;BME280;56932;38.402;-96.176;2023-04-03T03:28:54;96346.11;;;23.65;24.66
69689;BME280;56932;38.402;-96.176;2023-04-03T03:31:20;96346.00;;;23.89;24.65
69689;BME280;56932;38.402;-96.176;2023-04-03T03:33:45;96345.61;;;23.07;24.51
69689;BME280;56932;38.402;-96.176;2023-04-03T03:36:10;96352.56;;;24.08;23.99
69689;BME280;56932;38.402;-96.176;2023-04-03T03:38:37;96352.02;;;23.44;24.55
69689;BME280;56932;38.402;-96.176;2023-04-03T03:41:01;96347.23;;;22.52;25.35
69689;BME280;56932;38.402;-96.176;2023-04-03T03:43:28;96346.68;;;24.33;24.12
69689;BME280;56932;38.402;-96.176;2023-04-03T03:45:53;96345.52;;;22.48;25.34
69689;BME280;56932;38.402;-96.176;2023-04-03T03:48:19;96346.94;;;23.89;24.44
69689;BME280;56932;38.402;-96.176;2023-04-03T03:50:44;96354.05;;;23.16;24.23
69689;BME280;56932;38.402;-96.176;2023-04-03T03:53:09;96358.06;;;23.00;24.96
69689;BME280;56932;38.402;-96.176;2023-04-03T03:55:35;96356.31;;;23.31;24.89
69689;BME280;56932;38.402;-96.176;2023-04-03T03:58:00;96350.08;;;23.42;24.33
69689;BME280;56932;38.402;-96.176;2023-04-03T04:00:25;96350.51;;;23.71;24.49
69689;BME280;56932;38.402;-96.176;2023-04-03T04:02:50;96351.24;;;23.04;24.60
69689;BME280;56932;38.402;-96.176;2023-04-03T04:05:16;96349.53;;;23.52;24.59
69689;BME280;56932;38.402;-96.176;2023-04-03T04:07:42;96352.43;;;23.13;24.27
69689;BME280;56932;38.402;-96.176;2023-04-03T04:10:08;96354.83;;;23.04;24.61
69689;BME280;56932;38.402;-96.176;2023-04-03T04:12:33;96354.16;;;23.22;24.82
69689;BME280;56932;38.402;-96.176;2023-04-03T04:14:58;96352.20;;;22.83;25.17
69689;BME280;56932;38.402;-96.176;2023-04-03T04:17:23;96351.00;;;23.43;24.63
69689;BME280;56932;38.402;-96.176;2023-04-03T04:19:49;96360.05;;;23.43;24.17
69689;BME280;56932;38.402;-96.176;2023-04-03T04:22:14;96358.66;;;23.57;24.40
69689;BME280;56932;38.402;-96.176;2023-04-03T04:24:40;96360.53;;;22.40;24.83
69689;BME280;56932;38.402;-96.176;2023-04-03T04:27:05;96361.42;;;23.35;24.61
69689;BME280;56932;38.402;-96.176;2023-04-03T04:29:31;96360.96;;;23.96;24.04
69689;BME280;56932;38.402;-96.176;2023-04-03T04:31:56;96360.56;;;22.87;24.86
69689;BME280;56932;38.402;-96.176;2023-04-03T04:34:22;96359.02;;;23.17;24.77
69689;BME280;56932;38.402;-96.176;2023-04-03T04:36:47;96359.27;;;22.87;23.90
69689;BME280;56932;38.402;-96.176;2023-04-03T04:39:13;96356.83;;;23.71;24.23
69689;BME280;56932;38.402;-96.176;2023-04-03T04:41:39;96357.76;;;23.14;24.36
69689;BME280;56932;38.402;-96.176;2023-04-03T04:44:04;96357.69;;;22.47;25.40
69689;BME280;56932;38.402;-96.176;2023-04-03T04:46:29;96354.00;;;23.80;24.15
69689;BME280;56932;38.402;-96.176;2023-04-03T04:48:55;96351.32;;;22.88;24.53
69689;BME280;56932;38.402;-96.176;2023-04-03T04:51:21;96354.58;;;23.33;24.34
69689;BME280;56932;38.402;-96.176;2023-04-03T04:53:46;96354.29;;;22.60;24.12
69689;BME280;56932;38.402;-96.176;2023-04-03T04:56:12;96353.59;;;23.55;23.94
69689;BME280;56932;38.402;-96.176;2023-04-03T04:58:37;96349.52;;;23.41;24.03
69689;BME280;56932;38.402;-96.176;2023-04-03T05:01:04;96349.06;;;23.67;23.84
69689;BME280;56932;38.402;-96.176;2023-04-03T05:03:28;96345.53;;;23.53;24.33
69689;BME280;56932;38.402;-96.176;2023-04-03T05:05:53;96341.72;;;23.44;24.21
69689;BME280;56932;38.402;-96.176;2023-04-03T05:08:20;96335.72;;;24.19;23.75
69689;BME280;56932;38.402;-96.176;2023-04-03T05:10:45;96339.05;;;22.84;24.14
69689;BME280;56932;38.402;-96.176;2023-04-03T05:13:10;96338.69;;;23.76;24.13
69689;BME280;56932;38.402;-96.176;2023-04-03T05:15:36;96338.71;;;22.92;24.73
69689;BME280;56932;38.402;-96.176;2023-04-03T05:18:01;96334.36;;;22.81;24.60
69689;BME280;56932;38.402;-96.176;2023-04-03T05:20:26;96332.95;;;22.80;24.79
69689;BME280;56932;38.402;-96.176;2023-04-03T05:22:52;96328.69;;;23.09;24.11
69689;BME280;56932;38.402;-96.176;2023-04-03T05:25:18;96333.90;;;22.98;24.87
69689;BME280;56932;38.402;-96.176;2023-04-03T05:27:43;96321.18;;;21.78;25.55
69689;BME280;56932;38.402;-96.176;2023-04-03T05:30:09;96320.44;;;22.92;24.93
69689;BME280;56932;38.402;-96.176;2023-04-03T05:32:34;96318.23;;;24.03;24.35
69689;BME280;56932;38.402;-96.176;2023-04-03T05:34:59;96317.09;;;23.56;24.29
69689;BME280;56932;38.402;-96.176;2023-04-03T05:37:25;96322.16;;;22.97;24.89
69689;BME280;56932;38.402;-96.176;2023-04-03T05:39:51;96318.39;;;22.03;24.81
69689;BME280;56932;38.402;-96.176;2023-04-03T05:42:17;96319.65;;;23.22;24.19
69689;BME280;56932;38.402;-96.176;2023-04-03T05:44:42;96316.18;;;22.75;24.57
69689;BME280;56932;38.402;-96.176;2023-04-03T05:47:07;96315.31;;;22.95;24.39
69689;BME280;56932;38.402;-96.176;2023-04-03T05:49:33;96316.12;;;23.39;24.41
69689;BME280;56932;38.402;-96.176;2023-04-03T05:51:58;96310.65;;;23.61;24.18
69689;BME280;56932;38.402;-96.176;2023-04-03T05:54:25;96307.48;;;23.26;24.54
69689;BME280;56932;38.402;-96.176;2023-04-03T05:56:50;96303.56;;;21.94;24.86
69689;BME280;56932;38.402;-96.176;2023-04-03T05:59:15;96307.07;;;22.70;24.58
69689;BME280;56932;38.402;-96.176;2023-04-03T06:01:40;96301.50;;;22.42;24.82
69689;BME280;56932;38.402;-96.176;2023-04-03T06:04:06;96304.41;;;23.59;24.20
69689;BME280;56932;38.402;-96.176;2023-04-03T06:06:45;96296.08;;;22.53;24.26
69689;BME280;56932;38.402;-96.176;2023-04-03T06:09:00;96287.87;;;22.69;24.91
69689;BME280;56932;38.402;-96.176;2023-04-03T06:11:25;96286.62;;;23.44;24.07
69689;BME280;56932;38.402;-96.176;2023-04-03T06:13:51;96281.48;;;22.87;23.92
69689;BME280;56932;38.402;-96.176;2023-04-03T06:16:17;96295.01;;;23.41;24.26
69689;BME280;56932;38.402;-96.176;2023-04-03T06:18:42;96293.87;;;22.99;24.21
69689;BME280;56932;38.402;-96.176;2023-04-03T06:21:08;96295.37;;;22.66;24.70
69689;BME280;56932;38.402;-96.176;2023-04-03T06:23:34;96295.27;;;23.34;24.32
69689;BME280;56932;38.402;-96.176;2023-04-03T06:25:58;96297.18;;;22.14;25.21
69689;BME280;56932;38.402;-96.176;2023-04-03T06:28:24;96294.69;;;22.96;24.66
69689;BME280;56932;38.402;-96.176;2023-04-03T06:30:49;96293.67;;;22.28;24.45
69689;BME280;56932;38.402;-96.176;2023-04-03T06:33:15;96295.97;;;22.83;25.02
69689;BME280;56932;38.402;-96.176;2023-04-03T06:35:40;96293.13;;;23.33;23.94
69689;BME280;56932;38.402;-96.176;2023-04-03T06:38:06;96294.47;;;23.38;24.30
69689;BME280;56932;38.402;-96.176;2023-04-03T06:40:31;96291.12;;;23.01;24.61
69689;BME280;56932;38.402;-96.176;2023-04-03T06:42:57;96291.38;;;22.70;24.92
69689;BME280;56932;38.402;-96.176;2023-04-03T06:45:22;96293.86;;;22.87;24.78
69689;BME280;56932;38.402;-96.176;2023-04-03T06:47:48;96293.22;;;22.08;24.80
69689;BME280;56932;38.402;-96.176;2023-04-03T06:50:13;96290.91;;;22.42;25.11
69689;BME280;56932;38.402;-96.176;2023-04-03T06:52:39;96296.60;;;22.86;24.33
69689;BME280;56932;38.402;-96.176;2023-04-03T06:55:04;96296.58;;;23.10;24.53
69689;BME280;56932;38.402;-96.176;2023-04-03T06:57:30;96294.00;;;23.46;24.42
69689;BME280;56932;38.402;-96.176;2023-04-03T06:59:55;96293.60;;;22.11;25.16
69689;BME280;56932;38.402;-96.176;2023-04-03T07:02:20;96295.49;;;22.91;24.68
69689;BME280;56932;38.402;-96.176;2023-04-03T07:04:46;96297.15;;;22.59;24.26
69689;BME280;56932;38.402;-96.176;2023-04-03T07:07:11;96288.99;;;23.63;24.00
69689;BME280;56932;38.402;-96.176;2023-04-03T07:09:37;96284.67;;;22.92;24.22
69689;BME280;56932;38.402;-96.176;2023-04-03T07:12:02;96277.96;;;22.49;25.00
69689;BME280;56932;38.402;-96.176;2023-04-03T07:14:28;96278.49;;;23.05;24.50
69689;BME280;56932;38.402;-96.176;2023-04-03T07:16:53;96278.75;;;22.22;25.30
69689;BME280;56932;38.402;-96.176;2023-04-03T07:19:19;96277.56;;;22.40;25.09
69689;BME280;56932;38.402;-96.176;2023-04-03T07:21:45;96277.76;;;22.33;24.49
69689;BME280;56932;38.402;-96.176;2023-04-03T07:24:10;96278.27;;;23.20;24.31
69689;BME280;56932;38.402;-96.176;2023-04-03T07:26:35;96279.35;;;23.33;24.18
69689;BME280;56932;38.402;-96.176;2023-04-03T07:29:00;96276.15;;;21.68;25.72
69689;BME280;56932;38.402;-96.176;2023-04-03T07:31:25;96274.23;;;23.33;24.22
69689;BME280;56932;38.402;-96.176;2023-04-03T07:33:50;96267.93;;;22.50;24.10
69689;BME280;56932;38.402;-96.176;2023-04-03T07:36:19;96268.17;;;23.24;24.24
69689;BME280;56932;38.402;-96.176;2023-04-03T07:38:41;96265.56;;;22.11;24.88
69689;BME280;56932;38.402;-96.176;2023-04-03T07:41:06;96263.33;;;22.84;24.58
69689;BME280;56932;38.402;-96.176;2023-04-03T07:43:32;96256.71;;;22.14;25.41
69689;BME280;56932;38.402;-96.176;2023-04-03T07:45:57;96260.64;;;23.23;24.18
69689;BME280;56932;38.402;-96.176;2023-04-03T07:48:24;96250.03;;;22.34;24.93
69689;BME280;56932;38.402;-96.176;2023-04-03T07:50:49;96252.09;;;21.96;24.43
69689;BME280;56932;38.402;-96.176;2023-04-03T07:53:14;96247.84;;;22.86;24.48
69689;BME280;56932;38.402;-96.176;2023-04-03T07:55:40;96245.76;;;22.06;24.78
69689;BME280;56932;38.402;-96.176;2023-04-03T07:58:05;96241.34;;;22.33;24.90
69689;BME280;56932;38.402;-96.176;2023-04-03T08:00:30;96241.03;;;23.39;23.99
69689;BME280;56932;38.402;-96.176;2023-04-03T08:02:56;96239.75;;;22.89;24.05
69689;BME280;56932;38.402;-96.176;2023-04-03T08:05:22;96234.01;;;23.16;24.22
69689;BME280;56932;38.402;-96.176;2023-04-03T08:07:48;96240.96;;;22.00;24.58
69689;BME280;56932;38.402;-96.176;2023-04-03T08:10:13;96241.35;;;22.92;24.38
69689;BME280;56932;38.402;-96.176;2023-04-03T08:12:38;96243.86;;;22.36;24.49
69689;BME280;56932;38.402;-96.176;2023-04-03T08:15:05;96250.43;;;22.05;25.16
69689;BME280;56932;38.402;-96.176;2023-04-03T08:17:28;96246.27;;;22.48;24.79
69689;BME280;56932;38.402;-96.176;2023-04-03T08:19:54;96242.61;;;21.62;25.28
69689;BME280;56932;38.402;-96.176;2023-04-03T08:22:20;96237.48;;;22.86;24.64
69689;BME280;56932;38.402;-96.176;2023-04-03T08:24:46;96241.19;;;20.64;26.02
69689;BME280;56932;38.402;-96.176;2023-04-03T08:27:11;96238.18;;;23.03;24.48
69689;BME280;56932;38.402;-96.176;2023-04-03T08:29:37;96236.55;;;22.78;24.28
69689;BME280;56932;38.402;-96.176;2023-04-03T08:32:02;96234.07;;;22.60;24.59
69689;BME280;56932;38.402;-96.176;2023-04-03T08:34:28;96230.65;;;22.43;25.00
69689;BME280;56932;38.402;-96.176;2023-04-03T08:36:53;96228.53;;;22.19;24.60
69689;BME280;56932;38.402;-96.176;2023-04-03T08:39:18;96224.17;;;22.41;24.76
69689;BME280;56932;38.402;-96.176;2023-04-03T08:41:45;96219.18;;;21.60;25.06
69689;BME280;56932;38.402;-96.176;2023-04-03T08:44:15;96216.13;;;22.51;24.88
69689;BME280;56932;38.402;-96.176;2023-04-03T08:46:47;96213.46;;;23.09;24.07
69689;BME280;56932;38.402;-96.176;2023-04-03T08:49:01;96206.55;;;23.16;24.02
69689;BME280;56932;38.402;-96.176;2023-04-03T08:51:26;96203.55;;;22.30;24.71
69689;BME280;56932;38.402;-96.176;2023-04-03T08:53:56;96195.46;;;22.47;24.18
69689;BME280;56932;38.402;-96.176;2023-04-03T08:56:18;96191.09;;;23.24;23.92
69689;BME280;56932;38.402;-96.176;2023-04-03T08:58:46;96195.13;;;21.93;24.67
69689;BME280;56932;38.402;-96.176;2023-04-03T09:01:16;96192.23;;;22.64;24.90
69689;BME280;56932;38.402;-96.176;2023-04-03T09:03:40;96189.06;;;22.41;24.93
69689;BME280;56932;38.402;-96.176;2023-04-03T09:06:02;96186.63;;;21.49;25.54
69689;BME280;56932;38.402;-96.176;2023-04-03T09:08:25;96183.92;;;22.11;25.34
69689;BME280;56932;38.402;-96.176;2023-04-03T09:10:49;96191.59;;;21.77;24.83
69689;BME280;56932;38.402;-96.176;2023-04-03T09:13:22;96187.68;;;21.39;25.86
69689;BME280;56932;38.402;-96.176;2023-04-03T09:15:41;96187.81;;;21.50;25.50
69689;BME280;56932;38.402;-96.176;2023-04-03T09:18:12;96185.54;;;22.20;24.84
69689;BME280;56932;38.402;-96.176;2023-04-03T09:20:39;96184.60;;;22.71;24.62
69689;BME280;56932;38.402;-96.176;2023-04-03T09:22:56;96183.61;;;22.68;24.40
69689;BME280;56932;38.402;-96.176;2023-04-03T09:25:23;96185.86;;;23.60;23.97
69689;BME280;56932;38.402;-96.176;2023-04-03T09:27:48;96182.19;;;21.91;24.66
69689;BME280;56932;38.402;-96.176;2023-04-03T09:30:14;96172.10;;;22.68;24.38
69689;BME280;56932;38.402;-96.176;2023-04-03T09:32:38;96172.36;;;21.16;25.75
69689;BME280;56932;38.402;-96.176;2023-04-03T09:35:16;96168.67;;;22.62;24.67
69689;BME280;56932;38.402;-96.176;2023-04-03T09:37:34;96165.14;;;23.12;24.39
69689;BME280;56932;38.402;-96.176;2023-04-03T09:39:54;96161.80;;;22.25;24.55
69689;BME280;56932;38.402;-96.176;2023-04-03T09:42:21;96155.94;;;22.20;25.17
69689;BME280;56932;38.402;-96.176;2023-04-03T09:44:54;96152.10;;;21.25;25.21
69689;BME280;56932;38.402;-96.176;2023-04-03T09:47:19;96141.21;;;22.37;24.58
69689;BME280;56932;38.402;-96.176;2023-04-03T09:49:36;96151.60;;;21.87;25.07
69689;BME280;56932;38.402;-96.176;2023-04-03T09:54:33;96152.77;;;22.69;24.74
69689;BME280;56932;38.402;-96.176;2023-04-03T09:56:54;96140.80;;;22.03;24.90
69689;BME280;56932;38.402;-96.176;2023-04-03T09:59:18;96140.18;;;22.09;25.07
69689;BME280;56932;38.402;-96.176;2023-04-03T10:04:12;96138.93;;;22.01;24.95
69689;BME280;56932;38.402;-96.176;2023-04-03T10:06:38;96139.70;;;22.34;25.10
69689;BME280;56932;38.402;-96.176;2023-04-03T10:09:03;96136.41;;;21.69;25.42
69689;BME280;56932;38.402;-96.176;2023-04-03T10:11:26;96130.64;;;22.57;24.35
69689;BME280;56932;38.402;-96.176;2023-04-03T10:13:53;96130.22;;;21.63;25.22
69689;BME280;56932;38.402;-96.176;2023-04-03T10:16:18;96125.10;;;22.47;24.68
69689;BME280;56932;38.402;-96.176;2023-04-03T10:18:45;96122.79;;;22.20;24.32
69689;BME280;56932;38.402;-96.176;2023-04-03T10:21:13;96124.96;;;22.70;24.72
69689;BME280;56932;38.402;-96.176;2023-04-03T10:23:39;96126.86;;;22.62;24.83
69689;BME280;56932;38.402;-96.176;2023-04-03T10:26:08;96130.24;;;21.35;25.50
69689;BME280;56932;38.402;-96.176;2023-04-03T10:28:30;96134.60;;;23.06;24.39
69689;BME280;56932;38.402;-96.176;2023-04-03T10:30:55;96139.70;;;21.31;25.15
69689;BME280;56932;38.402;-96.176;2023-04-03T10:33:22;96145.21;;;21.73;25.20
69689;BME280;56932;38.402;-96.176;2023-04-03T10:35:46;96156.70;;;21.30;25.66
69689;BME280;56932;38.402;-96.176;2023-04-03T10:38:13;96158.69;;;21.63;25.25
69689;BME280;56932;38.402;-96.176;2023-04-03T10:40:38;96161.33;;;22.68;24.68
69689;BME280;56932;38.402;-96.176;2023-04-03T10:43:01;96173.50;;;21.81;25.10
69689;BME280;56932;38.402;-96.176;2023-04-03T10:45:26;96196.18;;;22.06;25.26
69689;BME280;56932;38.402;-96.176;2023-04-03T10:47:56;96223.94;;;22.02;24.90
69689;BME280;56932;38.402;-96.176;2023-04-03T10:50:25;96249.29;;;22.43;24.95
69689;BME280;56932;38.402;-96.176;2023-04-03T10:52:43;96260.96;;;21.27;25.56
69689;BME280;56932;38.402;-96.176;2023-04-03T10:55:16;96258.95;;;21.52;25.36
69689;BME280;56932;38.402;-96.176;2023-04-03T10:57:30;96244.77;;;22.63;24.72
69689;BME280;56932;38.402;-96.176;2023-04-03T10:59:59;96235.50;;;21.89;24.97
69689;BME280;56932;38.402;-96.176;2023-04-03T11:02:24;96231.81;;;22.82;24.55
69689;BME280;56932;38.402;-96.176;2023-04-03T11:04:50;96226.31;;;21.83;24.58
69689;BME280;56932;38.402;-96.176;2023-04-03T11:07:16;96220.08;;;21.60;25.20
69689;BME280;56932;38.402;-96.176;2023-04-03T11:09:41;96218.79;;;22.46;24.65
69689;BME280;56932;38.402;-96.176;2023-04-03T11:12:09;96226.16;;;22.26;25.05
69689;BME280;56932;38.402;-96.176;2023-04-03T11:14:30;96231.03;;;22.52;24.84
69689;BME280;56932;38.402;-96.176;2023-04-03T11:17:04;96226.80;;;22.26;24.62
69689;BME280;56932;38.402;-96.176;2023-04-03T11:19:22;96220.07;;;22.90;24.27
69689;BME280;56932;38.402;-96.176;2023-04-03T11:21:50;96224.79;;;20.26;26.19
69689;BME280;56932;38.402;-96.176;2023-04-03T11:24:17;96233.85;;;22.35;24.74
69689;BME280;56932;38.402;-96.176;2023-04-03T11:26:39;96223.41;;;22.55;24.79
69689;BME280;56932;38.402;-96.176;2023-04-03T11:29:03;96213.43;;;21.70;25.38
69689;BME280;56932;38.402;-96.176;2023-04-03T11:31:38;96225.92;;;21.73;25.53
69689;BME280;56932;38.402;-96.176;2023-04-03T11:33:58;96243.50;;;21.50;25.21
69689;BME280;56932;38.402;-96.176;2023-04-03T11:36:21;96245.73;;;22.41;24.85
69689;BME280;56932;38.402;-96.176;2023-04-03T11:38:46;96223.34;;;20.93;25.54
69689;BME280;56932;38.402;-96.176;2023-04-03T11:41:09;96220.79;;;22.06;25.01
69689;BME280;56932;38.402;-96.176;2023-04-03T11:43:40;96239.16;;;22.00;25.20
69689;BME280;56932;38.402;-96.176;2023-04-03T11:46:00;96252.23;;;21.83;24.96
69689;BME280;56932;38.402;-96.176;2023-04-03T11:50:51;96237.30;;;21.84;25.00
69689;BME280;56932;38.402;-96.176;2023-04-03T11:58:13;96224.93;;;22.47;24.61
69689;BME280;56932;38.402;-96.176;2023-04-03T12:02:58;96230.26;;;22.31;24.46
69689;BME280;56932;38.402;-96.176;2023-04-03T12:05:26;96218.37;;;22.59;24.72
69689;BME280;56932;38.402;-96.176;2023-04-03T12:10:17;96220.10;;;22.63;24.66
69689;BME280;56932;38.402;-96.176;2023-04-03T12:12:41;96223.83;;;22.21;24.84
69689;BME280;56932;38.402;-96.176;2023-04-03T12:17:31;96220.65;;;21.62;25.88
69689;BME280;56932;38.402;-96.176;2023-04-03T12:19:56;96203.91;;;22.50;24.90
69689;BME280;56932;38.402;-96.176;2023-04-03T12:22:22;96207.97;;;22.36;25.03
69689;BME280;56932;38.402;-96.176;2023-04-03T12:24:49;96197.65;;;20.72;25.76
69689;BME280;56932;38.402;-96.176;2023-04-03T12:27:21;96199.33;;;22.47;25.09
69689;BME280;56932;38.402;-96.176;2023-04-03T12:29:43;96207.83;;;21.56;25.41
69689;BME280;56932;38.402;-96.176;2023-04-03T12:32:12;96213.03;;;22.23;25.27
69689;BME280;56932;38.402;-96.176;2023-04-03T12:34:40;96212.41;;;22.38;25.11
69689;BME280;56932;38.402;-96.176;2023-04-03T12:37:01;96210.03;;;22.23;24.76
69689;BME280;56932;38.402;-96.176;2023-04-03T12:39:39;96201.72;;;22.64;24.82
69689;BME280;56932;38.402;-96.176;2023-04-03T12:41:53;96205.28;;;21.27;25.48
69689;BME280;56932;38.402;-96.176;2023-04-03T12:44:23;96216.54;;;22.45;25.04
69689;BME280;56932;38.402;-96.176;2023-04-03T12:46:39;96214.42;;;21.49;25.65
69689;BME280;56932;38.402;-96.176;2023-04-03T12:49:10;96217.43;;;22.20;25.02
69689;BME280;56932;38.402;-96.176;2023-04-03T12:51:33;96214.60;;;21.74;25.71
69689;BME280;56932;38.402;-96.176;2023-04-03T12:53:58;96207.67;;;21.70;25.23
69689;BME280;56932;38.402;-96.176;2023-04-03T12:56:22;96211.99;;;21.96;25.44